Time;durP1;ratioP1;P1;durP2;ratioP2;P2;SDS_P1;SDS_P2;PMS_P1;PMS_P2;Temp;Humidity;BMP_temperature;BMP_pressure;BME280_temperature;BME280_humidity;BME280_pressure;Samples;Min_cycle;Max_cycle;Signal;HPM_P1;HPM_P2
2022/01/24 00:00:27;;;;;;;8.40;5.40;;;;;;;0.34;100.00;97750.56;5059409;28;20107;-80
2022/01/24 00:02:53;;;;;;;10.27;5.70;;;;;;;0.36;100.00;97755.66;5066059;28;20037;-82
2022/01/24 00:05:18;;;;;;;10.77;6.20;;;;;;;0.30;100.00;97748.13;5051562;28;20099;-82
2022/01/24 00:07:44;;;;;;;12.10;5.80;;;;;;;0.28;100.00;97747.34;5082902;28;20068;-82
2022/01/24 00:10:15;;;;;;;9.83;5.70;;;;;;;0.32;100.00;97742.00;5057857;28;20028;-80
2022/01/24 00:13:23;;;;;;;10.10;5.57;;;;;;;0.36;100.00;97751.31;5049732;28;20032;-80
2022/01/24 00:18:30;;;;;;;8.87;5.83;;;;;;;0.21;100.00;97754.50;5080978;28;20032;-80
2022/01/24 00:29:08;;;;;;;10.03;6.27;;;;;;;0.26;100.00;97752.56;5058577;28;20473;-80
2022/01/24 00:31:34;;;;;;;10.20;6.10;;;;;;;0.35;100.00;97756.56;5050009;28;20475;-78
2022/01/24 00:34:00;;;;;;;11.50;6.63;;;;;;;0.39;100.00;97758.13;5062311;28;20028;-78
2022/01/24 00:36:25;;;;;;;9.30;6.10;;;;;;;0.33;100.00;97760.94;5058231;28;20513;-78
2022/01/24 00:38:51;;;;;;;9.57;5.83;;;;;;;0.35;100.00;97762.59;5080076;28;20032;-80
2022/01/24 00:41:19;;;;;;;11.70;6.00;;;;;;;0.35;100.00;97757.41;5043023;28;20359;-78
2022/01/24 00:46:45;;;;;;;10.87;6.40;;;;;;;0.41;100.00;97771.88;5066666;28;20835;-77
2022/01/24 00:54:51;;;;;;;10.47;6.20;;;;;;;0.61;100.00;97753.81;5061296;28;20562;-78
2022/01/24 00:57:20;;;;;;;12.90;6.47;;;;;;;0.60;100.00;97752.09;5049824;28;20462;-78
2022/01/24 00:59:47;;;;;;;11.90;6.00;;;;;;;0.53;100.00;97755.84;5057772;28;20449;-78
2022/01/24 01:02:13;;;;;;;10.80;6.73;;;;;;;0.55;100.00;97758.38;5080794;28;21066;-79
2022/01/24 01:18:16;;;;;;;10.30;6.60;;;;;;;0.60;100.00;97757.28;5079732;28;20951;-78
2022/01/24 01:21:08;;;;;;;7.50;5.05;;;;;;;0.63;100.00;97757.16;5058006;28;20809;-78
2022/01/24 01:23:51;;;;;;;11.60;6.03;;;;;;;0.65;100.00;97754.53;5085788;28;20244;-79
2022/01/24 01:26:44;;;;;;;9.73;5.43;;;;;;;0.66;100.00;97757.03;5050182;28;20559;-78
2022/01/24 01:29:16;;;;;;;11.00;7.03;;;;;;;0.60;100.00;97746.94;5061310;28;20028;-78
2022/01/24 01:37:50;;;;;;;;;;;;;;;0.63;100.00;97754.56;5077259;28;20508;-78
2022/01/24 01:54:03;;;;;;;10.23;6.67;;;;;;;0.72;100.00;97744.78;5073335;28;21024;-78
2022/01/24 01:56:29;;;;;;;;;;;;;;;0.67;100.00;97743.22;5048666;28;20474;-78
2022/01/24 01:58:54;;;;;;;9.80;6.57;;;;;;;0.66;100.00;97746.69;5068236;28;20474;-77
2022/01/24 02:01:20;;;;;;;8.83;5.70;;;;;;;0.67;100.00;97740.63;5085189;28;20089;-78
2022/01/24 02:03:46;;;;;;;11.07;7.30;;;;;;;0.68;100.00;97738.88;5065198;28;20109;-78
2022/01/24 02:06:12;;;;;;;12.13;8.33;;;;;;;0.63;100.00;97739.03;5034336;28;20019;-78
2022/01/24 02:08:38;;;;;;;11.83;7.17;;;;;;;0.70;100.00;97734.47;5054013;28;20852;-78
2022/01/24 02:11:04;;;;;;;9.77;6.87;;;;;;;0.63;100.00;97733.03;5052967;28;20469;-77
2022/01/24 02:13:31;;;;;;;11.23;7.33;;;;;;;0.65;100.00;97724.31;5075986;28;20466;-79
2022/01/24 02:16:08;;;;;;;10.80;7.20;;;;;;;0.67;100.00;97732.88;5069964;28;20038;-78
2022/01/24 02:18:46;;;;;;;10.40;6.73;;;;;;;0.69;100.00;97728.44;5041327;28;20451;-78
2022/01/24 02:21:42;;;;;;;10.00;6.10;;;;;;;0.73;100.00;97720.56;5062536;28;20515;-79
2022/01/24 02:24:10;;;;;;;9.67;6.33;;;;;;;0.70;100.00;97722.38;5064251;28;20999;-79
2022/01/24 02:26:35;;;;;;;9.13;5.47;;;;;;;0.68;100.00;97713.00;5065863;28;20454;-78
2022/01/24 02:34:01;;;;;;;9.95;6.55;;;;;;;0.65;100.00;97700.16;5089248;28;20435;-78
2022/01/24 02:36:26;;;;;;;11.07;6.30;;;;;;;0.64;100.00;97701.91;5063972;28;20032;-77
2022/01/24 02:49:49;;;;;;;10.43;7.00;;;;;;;0.57;100.00;97679.78;5081969;28;20847;-78
2022/01/24 02:52:16;;;;;;;9.43;6.60;;;;;;;0.51;100.00;97676.59;5069581;28;20454;-78
2022/01/24 02:54:42;;;;;;;12.13;7.57;;;;;;;0.52;100.00;97666.16;5049560;28;20048;-78
2022/01/24 02:57:12;;;;;;;10.83;6.70;;;;;;;0.53;100.00;97662.66;5048862;28;20457;-78
2022/01/24 02:59:38;;;;;;;10.43;6.30;;;;;;;0.53;100.00;97654.88;5045109;28;20482;-78
2022/01/24 03:02:04;;;;;;;9.73;6.57;;;;;;;0.53;100.00;97660.06;5064154;28;20456;-78
2022/01/24 03:04:30;;;;;;;14.17;6.50;;;;;;;0.47;100.00;97657.75;5050812;28;20032;-78
2022/01/24 03:06:56;;;;;;;9.97;6.70;;;;;;;0.46;100.00;97663.81;5037975;28;20455;-79
2022/01/24 03:09:22;;;;;;;10.90;6.57;;;;;;;0.43;100.00;97663.94;5047754;28;20036;-78
2022/01/24 03:12:03;;;;;;;9.50;6.23;;;;;;;0.43;100.00;97671.69;5057455;28;20223;-80
2022/01/24 03:14:32;;;;;;;9.33;5.87;;;;;;;0.47;100.00;97668.13;5048224;28;20471;-78
2022/01/24 03:16:58;;;;;;;8.07;5.80;;;;;;;0.42;100.00;97672.63;5058177;28;20600;-78
2022/01/24 03:19:24;;;;;;;8.67;5.60;;;;;;;0.42;100.00;97677.78;5060963;28;20546;-77
2022/01/24 03:21:50;;;;;;;11.47;6.17;;;;;;;0.41;100.00;97681.28;5071243;28;21014;-78
2022/01/24 03:24:16;;;;;;;8.40;5.30;;;;;;;0.45;100.00;97685.44;5059416;28;20043;-79
2022/01/24 03:26:42;;;;;;;9.60;6.07;;;;;;;0.40;100.00;97672.69;5054800;28;20012;-78
2022/01/24 03:29:09;;;;;;;11.33;6.93;;;;;;;0.39;100.00;97677.91;5062455;28;20032;-79
2022/01/24 03:31:36;;;;;;;11.50;7.17;;;;;;;0.40;100.00;97671.81;5073568;28;20574;-77
2022/01/24 03:34:02;;;;;;;9.43;6.07;;;;;;;0.35;100.00;97672.00;5040290;28;20462;-78
2022/01/24 03:36:28;;;;;;;10.13;6.73;;;;;;;0.34;100.00;97666.91;5067322;28;20482;-78
2022/01/24 03:38:54;;;;;;;10.47;5.60;;;;;;;0.33;100.00;97665.22;5046688;28;20994;-78
2022/01/24 03:41:20;;;;;;;9.17;5.73;;;;;;;0.32;100.00;97668.72;5073309;28;20564;-78
2022/01/24 03:43:46;;;;;;;8.50;5.83;;;;;;;0.31;100.00;97667.88;5059418;28;20063;-79
2022/01/24 03:46:26;;;;;;;10.77;5.47;;;;;;;0.34;100.00;97669.50;5060301;28;20490;-78
2022/01/24 03:49:08;;;;;;;11.00;5.60;;;;;;;0.28;100.00;97664.56;5049123;28;20056;-78
2022/01/24 03:51:34;;;;;;;11.27;5.57;;;;;;;0.26;100.00;97663.78;5086443;28;20750;-78
2022/01/24 03:54:01;;;;;;;9.20;5.70;;;;;;;0.28;100.00;97661.97;5048333;28;20550;-78
2022/01/24 03:56:27;;;;;;;11.13;5.30;;;;;;;0.28;100.00;97665.41;5061509;28;20055;-79
2022/01/24 03:58:53;;;;;;;10.33;5.23;;;;;;;0.31;100.00;97657.53;5065784;28;20462;-79
2022/01/24 04:01:21;;;;;;;9.47;5.30;;;;;;;0.34;100.00;97661.75;5061139;28;20461;-78
2022/01/24 04:03:46;;;;;;;8.47;5.10;;;;;;;0.26;100.00;97663.78;5069793;28;20036;-79
2022/01/24 04:06:12;;;;;;;13.37;4.80;;;;;;;0.22;100.00;97658.72;5074923;28;20435;-78
2022/01/24 04:08:40;;;;;;;9.73;5.30;;;;;;;0.22;100.00;97660.47;5040616;28;20044;-78
2022/01/24 04:11:11;;;;;;;8.17;5.33;;;;;;;0.26;100.00;97663.78;5078037;28;20032;-78
2022/01/24 04:13:39;;;;;;;15.00;6.40;;;;;;;0.18;100.00;97666.66;5038062;28;21023;-78
2022/01/24 04:16:27;;;;;;;7.70;4.83;;;;;;;0.23;100.00;97664.72;5063510;28;20866;-78
2022/01/24 04:23:59;;;;;;;10.10;5.20;;;;;;;0.18;100.00;97662.34;5061209;28;20549;-78
2022/01/24 04:26:26;;;;;;;7.13;4.60;;;;;;;0.22;100.00;97673.41;5057495;28;21080;-77
2022/01/24 04:28:52;;;;;;;8.90;5.07;;;;;;;0.22;100.00;97666.47;5054417;28;20522;-80
2022/01/24 04:31:18;;;;;;;9.13;5.13;;;;;;;0.15;100.00;97670.22;5065196;28;20466;-79
2022/01/24 04:33:45;;;;;;;10.13;5.17;;;;;;;0.17;100.00;97663.25;5059426;28;20064;-81
2022/01/24 04:36:10;;;;;;;8.60;5.67;;;;;;;0.17;100.00;97671.00;5063381;28;20546;-78
2022/01/24 04:38:36;;;;;;;8.33;4.47;;;;;;;0.12;100.00;97669.50;5046940;28;20538;-78
2022/01/24 04:41:07;;;;;;;7.87;4.60;;;;;;;0.18;100.00;97662.34;5090682;28;20032;-80
2022/01/24 04:43:52;;;;;;;7.53;4.43;;;;;;;0.23;100.00;97663.00;5044448;28;20397;-78
2022/01/24 04:56:38;;;;;;;8.43;3.87;;;;;;;0.18;100.00;97662.34;5075182;28;20128;-79
2022/01/24 04:59:05;;;;;;;8.53;4.30;;;;;;;0.19;100.00;97669.19;5073499;28;20461;-79
2022/01/24 05:01:31;;;;;;;8.63;5.40;;;;;;;0.13;100.00;97669.41;5054371;28;20477;-79
2022/01/24 05:03:57;;;;;;;6.90;3.97;;;;;;;0.11;100.00;97667.81;5080048;28;20563;-79
2022/01/24 05:06:23;;;;;;;6.77;3.90;;;;;;;0.11;100.00;97675.56;5072364;28;20025;-79
2022/01/24 05:08:55;;;;;;;9.77;3.83;;;;;;;0.13;100.00;97676.34;5057643;28;20462;-81
2022/01/24 05:11:35;;;;;;;6.90;3.57;;;;;;;0.13;100.00;97679.75;5070520;28;20054;-79
2022/01/24 05:24:41;;;;;;;7.00;3.80;;;;;;;0.19;100.00;97683.88;5066221;28;20553;-80
2022/01/24 05:27:07;;;;;;;7.60;3.70;;;;;;;0.12;100.00;97683.25;5054585;28;20032;-80
2022/01/24 05:29:32;;;;;;;6.73;4.10;;;;;;;0.11;100.00;97683.34;5054801;28;20437;-79
2022/01/24 05:31:58;;;;;;;5.73;4.00;;;;;;;0.12;100.00;97683.25;5067778;28;20469;-80
2022/01/24 05:34:24;;;;;;;7.97;3.67;;;;;;;0.10;100.00;97684.22;5068630;28;21251;-79
2022/01/24 05:36:51;;;;;;;6.10;3.97;;;;;;;0.17;100.00;97689.13;5050043;28;20094;-78
2022/01/24 05:39:17;;;;;;;6.50;3.57;;;;;;;0.12;100.00;97692.78;5090408;28;20544;-79
2022/01/24 05:41:42;;;;;;;9.90;5.10;;;;;;;0.11;100.00;97691.94;5066220;28;20616;-79
2022/01/24 05:44:14;;;;;;;13.27;6.10;;;;;;;0.17;100.00;97688.28;5039726;28;20421;-79
2022/01/24 05:46:40;;;;;;;9.37;4.23;;;;;;;0.17;100.00;97689.13;5062624;28;20031;-79
2022/01/24 05:49:07;;;;;;;8.57;4.67;;;;;;;0.19;100.00;97696.81;5062702;28;20815;-81
2022/01/24 05:51:32;;;;;;;7.10;4.20;;;;;;;0.12;100.00;97697.94;5090876;28;20032;-79
2022/01/24 05:53:59;;;;;;;8.30;4.97;;;;;;;0.11;100.00;97706.63;5069635;28;20519;-79
2022/01/24 05:56:25;;;;;;;8.77;4.50;;;;;;;0.14;100.00;97697.00;5075673;28;20114;-79
2022/01/24 05:58:50;;;;;;;9.17;5.23;;;;;;;0.09;100.00;97696.31;5059204;28;20489;-79
2022/01/24 06:01:16;;;;;;;7.70;4.80;;;;;;;0.09;100.00;97698.91;5070826;28;20714;-79
2022/01/24 06:03:42;;;;;;;7.67;4.03;;;;;;;0.08;100.00;97691.22;5066761;28;20032;-79
2022/01/24 06:06:08;;;;;;;11.93;5.03;;;;;;;0.11;100.00;97702.28;5039650;28;20044;-79
2022/01/24 06:08:35;;;;;;;11.40;4.97;;;;;;;0.07;100.00;97702.44;5082577;28;20024;-80
2022/01/24 06:11:01;;;;;;;7.97;4.83;;;;;;;0.10;100.00;97705.78;5069746;28;20480;-79
2022/01/24 06:13:28;;;;;;;11.10;4.40;;;;;;;0.08;100.00;97706.72;5057550;28;20811;-79
2022/01/24 06:15:54;;;;;;;8.20;5.13;;;;;;;0.07;100.00;97710.19;5046799;28;20630;-79
2022/01/24 06:18:25;;;;;;;7.37;4.90;;;;;;;0.07;100.00;97697.25;5059620;28;20542;-78
2022/01/24 06:20:52;;;;;;;8.07;4.93;;;;;;;0.07;100.00;97699.84;5078991;28;20046;-78
2022/01/24 06:23:19;;;;;;;7.27;4.83;;;;;;;0.08;100.00;97702.41;5081902;28;20431;-79
2022/01/24 06:25:45;;;;;;;11.40;6.17;;;;;;;0.07;100.00;97698.13;5064928;28;20529;-79
2022/01/24 06:28:12;;;;;;;8.63;5.60;;;;;;;0.04;100.00;97698.25;5048304;28;20453;-79
2022/01/24 06:30:38;;;;;;;9.37;4.93;;;;;;;0.07;100.00;97695.53;5065246;28;20084;-80
2022/01/24 06:33:04;;;;;;;8.23;5.33;;;;;;;0.03;100.00;97706.88;5076881;28;20450;-79
2022/01/24 06:35:30;;;;;;;7.83;5.13;;;;;;;0.05;100.00;97705.09;5082428;28;20032;-79
2022/01/24 06:37:55;;;;;;;8.13;5.33;;;;;;;0.08;100.00;97707.56;5072265;28;20033;-79
2022/01/24 06:40:21;;;;;;;9.73;5.53;;;;;;;0.03;100.00;97708.63;5053459;28;20035;-79
2022/01/24 06:42:47;;;;;;;10.73;5.30;;;;;;;0.05;100.00;97718.03;5062024;28;20047;-79
2022/01/24 06:45:13;;;;;;;8.27;5.23;;;;;;;0.02;100.00;97718.13;5058492;28;20397;-80
2022/01/24 06:47:43;;;;;;;11.43;5.40;;;;;;;0.05;100.00;97722.38;5075111;28;20497;-79
2022/01/24 06:50:09;;;;;;;8.17;5.23;;;;;;;0.05;100.00;97718.03;5083597;28;20158;-79
2022/01/24 06:52:35;;;;;;;8.90;5.40;;;;;;;0.05;100.00;97715.44;5060490;28;20553;-79
2022/01/24 06:55:00;;;;;;;8.77;5.53;;;;;;;0.12;100.00;97719.47;5048356;28;20524;-79
2022/01/24 06:57:28;;;;;;;12.07;5.17;;;;;;;0.08;100.00;97717.91;5066043;28;20477;-79
2022/01/24 06:59:55;;;;;;;10.07;5.37;;;;;;;0.08;100.00;97725.69;5066410;28;20467;-78
2022/01/24 07:02:22;;;;;;;7.73;5.07;;;;;;;0.07;100.00;97724.00;5058772;28;20033;-80
2022/01/24 07:04:48;;;;;;;8.03;5.13;;;;;;;0.07;100.00;97736.94;5056258;28;20474;-77
2022/01/24 07:07:14;;;;;;;8.63;5.50;;;;;;;0.10;100.00;97734.22;5041394;28;21068;-76
2022/01/24 07:09:41;;;;;;;11.00;5.50;;;;;;;0.08;100.00;97740.34;5079318;28;20029;-76
2022/01/24 07:12:12;;;;;;;10.43;5.80;;;;;;;0.05;100.00;97740.47;5058076;28;20035;-76
2022/01/24 07:14:44;;;;;;;9.03;5.97;;;;;;;0.11;100.00;97742.81;5054325;28;20466;-79
2022/01/24 07:17:17;;;;;;;9.67;4.97;;;;;;;0.14;100.00;97746.13;5044684;28;20546;-77
2022/01/24 07:19:44;;;;;;;9.30;4.70;;;;;;;0.15;100.00;97754.75;5071735;28;20474;-82
2022/01/24 07:22:10;;;;;;;8.73;5.20;;;;;;;0.07;100.00;97752.44;5067456;28;20459;-78
2022/01/24 07:24:36;;;;;;;6.37;4.10;;;;;;;0.09;100.00;97742.88;5065992;28;20032;-79
2022/01/24 07:27:03;;;;;;;8.73;5.00;;;;;;;0.11;100.00;97755.75;5067708;28;20043;-79
2022/01/24 07:29:29;;;;;;;10.93;4.83;;;;;;;0.15;100.00;97750.41;5051243;28;21089;-79
2022/01/24 07:31:55;;;;;;;10.17;5.23;;;;;;;0.14;100.00;97755.66;5071081;28;20470;-79
2022/01/24 07:34:21;;;;;;;7.03;4.67;;;;;;;0.14;100.00;97747.88;5062857;28;20485;-83
2022/01/24 07:36:55;;;;;;;8.03;4.57;;;;;;;0.18;100.00;97754.63;5064602;28;20115;-78
2022/01/24 07:39:21;;;;;;;10.27;5.00;;;;;;;0.17;100.00;97758.97;5047512;28;20123;-82
2022/01/24 07:41:48;;;;;;;9.10;5.10;;;;;;;0.18;100.00;97757.22;5065711;28;21136;-78
2022/01/24 07:44:22;;;;;;;7.40;4.13;;;;;;;0.32;100.00;97746.34;5068884;28;20819;-78
2022/01/24 07:46:49;;;;;;;8.73;4.80;;;;;;;0.38;100.00;97761.63;5050468;28;20470;-77
2022/01/24 07:49:14;;;;;;;9.30;4.80;;;;;;;0.35;100.00;97751.41;5035662;28;20494;-77
2022/01/24 07:51:42;;;;;;;10.80;5.73;;;;;;;0.34;100.00;97744.53;5061154;28;20462;-79
2022/01/24 07:54:08;;;;;;;9.20;5.43;;;;;;;0.33;100.00;97748.84;5052242;28;20106;-78
2022/01/24 07:56:35;;;;;;;8.53;5.27;;;;;;;0.37;100.00;97750.44;5089139;28;20454;-78
2022/01/24 07:59:00;;;;;;;7.73;4.77;;;;;;;0.53;100.00;97749.81;5072888;28;20536;-78
2022/01/24 08:01:26;;;;;;;9.00;4.27;;;;;;;0.79;100.00;97751.38;5060916;28;20510;-78
2022/01/24 08:03:52;;;;;;;6.33;3.47;;;;;;;0.95;100.00;97739.50;5058944;28;20049;-78
2022/01/24 08:06:18;;;;;;;6.87;4.47;;;;;;;1.24;100.00;97738.31;5066431;28;20024;-78
2022/01/24 08:08:45;;;;;;;8.50;4.40;;;;;;;1.41;100.00;97745.38;5063034;28;20473;-77
2022/01/24 08:11:11;;;;;;;8.77;4.20;;;;;;;1.92;100.00;97737.94;5060785;28;20565;-76
2022/01/24 08:13:38;;;;;;;6.57;4.53;;;;;;;1.92;100.00;97743.97;5060854;28;20463;-78
2022/01/24 08:16:04;;;;;;;7.77;4.03;;;;;;;1.96;100.00;97744.69;5052528;28;20467;-77
2022/01/24 08:18:29;;;;;;;7.00;3.80;;;;;;;2.05;100.00;97752.91;5063359;28;20093;-81
2022/01/24 08:20:55;;;;;;;8.80;4.77;;;;;;;1.55;100.00;97763.75;5058697;28;20032;-83
2022/01/24 08:23:21;;;;;;;5.87;3.80;;;;;;;1.56;100.00;97762.00;5055566;28;20028;-78
2022/01/24 08:25:47;;;;;;;6.37;3.93;;;;;;;1.33;100.00;97758.63;5072356;28;20065;-78
2022/01/24 08:28:13;;;;;;;5.63;3.50;;;;;;;1.60;100.00;97760.94;5052676;28;20033;-78
2022/01/24 08:30:38;;;;;;;6.17;3.50;;;;;;;2.13;100.00;97755.97;5063788;28;20697;-78
2022/01/24 08:33:05;;;;;;;5.93;3.50;;;;;;;2.06;100.00;97753.72;5041583;28;20162;-79
2022/01/24 08:35:32;;;;;;;4.90;2.97;;;;;;;2.02;100.00;97757.38;5063517;28;20062;-78
2022/01/24 08:37:58;;;;;;;5.43;2.77;;;;;;;2.47;100.00;97759.59;5063901;28;20067;-78
2022/01/24 08:40:26;;;;;;;6.13;3.30;;;;;;;2.33;100.00;97762.00;5040966;28;20036;-79
2022/01/24 08:43:12;;;;;;;5.67;3.43;;;;;;;2.95;100.00;97760.78;5075734;28;20453;-79
2022/01/24 08:45:47;;;;;;;6.53;2.80;;;;;;;2.25;100.00;97764.97;5068537;28;20043;-83
2022/01/24 08:48:19;;;;;;;7.17;3.63;;;;;;;2.05;100.00;97765.88;5057743;28;20045;-82
2022/01/24 08:50:51;;;;;;;4.97;2.67;;;;;;;1.76;100.00;97767.16;5076842;28;20032;-82
2022/01/24 08:53:23;;;;;;;6.30;3.47;;;;;;;1.53;100.00;97759.53;5056867;28;20550;-83
2022/01/24 08:55:49;;;;;;;5.60;3.10;;;;;;;1.98;100.00;97755.81;5058199;28;20097;-81
2022/01/24 08:58:18;;;;;;;5.60;2.70;;;;;;;2.22;100.00;97764.25;5063597;28;20046;-82
2022/01/24 09:00:46;;;;;;;7.63;4.50;;;;;;;2.09;100.00;97758.78;5078316;28;20024;-81
2022/01/24 09:03:25;;;;;;;5.87;2.37;;;;;;;2.04;100.00;97773.69;5045736;28;20036;-82
2022/01/24 09:05:53;;;;;;;5.80;2.77;;;;;;;2.11;100.00;97770.78;5090762;28;20107;-81
2022/01/24 09:08:19;;;;;;;4.70;2.63;;;;;;;1.88;100.00;97768.38;5053712;28;20107;-81
2022/01/24 09:10:47;;;;;;;4.50;2.70;;;;;;;1.80;100.00;97760.06;5052827;28;20040;-81
2022/01/24 09:13:21;;;;;;;5.20;2.27;;;;;;;1.70;100.00;97766.56;5058328;28;20032;-81
2022/01/24 09:16:01;;;;;;;5.37;2.33;;;;;;;1.81;100.00;97764.34;5057414;28;20051;-80
2022/01/24 09:18:29;;;;;;;5.97;2.60;;;;;;;2.68;100.00;97762.94;5069583;28;20473;-81
2022/01/24 09:20:55;;;;;;;6.03;2.60;;;;;;;3.00;100.00;97757.97;5045304;28;20032;-80
2022/01/24 09:23:22;;;;;;;4.60;1.87;;;;;;;2.68;100.00;97773.31;5077549;28;20063;-80
2022/01/24 09:25:50;;;;;;;4.70;2.10;;;;;;;2.38;100.00;97775.59;5067627;28;20028;-78
2022/01/24 09:28:24;;;;;;;5.97;2.00;;;;;;;2.02;100.00;97776.38;5041866;28;20074;-77
2022/01/24 09:30:52;;;;;;;5.53;1.93;;;;;;;3.67;99.15;97770.19;5049677;28;20044;-79
2022/01/24 09:33:20;;;;;;;6.23;2.00;;;;;;;3.11;99.67;97775.63;5070325;28;20032;-80
2022/01/24 09:35:46;;;;;;;3.40;1.60;;;;;;;4.29;92.88;97767.78;5068896;28;20056;-81
2022/01/24 09:38:12;;;;;;;3.80;1.70;;;;;;;4.00;92.50;97766.75;5088577;28;20039;-82
2022/01/24 09:40:38;;;;;;;3.10;1.60;;;;;;;3.51;97.11;97769.28;5049356;28;20123;-82
2022/01/24 09:43:05;;;;;;;3.40;1.60;;;;;;;3.45;98.49;97780.81;5058287;28;20031;-82
2022/01/24 09:45:31;;;;;;;4.90;1.60;;;;;;;3.23;96.44;97778.47;5053967;28;20029;-82
2022/01/24 09:47:58;;;;;;;6.23;1.80;;;;;;;3.80;94.24;97775.59;5070493;28;20111;-81
2022/01/24 09:50:24;;;;;;;5.63;1.70;;;;;;;4.44;92.56;97766.97;5078230;28;20009;-83
2022/01/24 09:52:51;;;;;;;3.70;1.50;;;;;;;5.13;84.74;97775.28;5086728;28;20092;-82
2022/01/24 09:55:19;;;;;;;3.43;1.60;;;;;;;4.70;85.76;97772.53;5065417;28;20040;-81
2022/01/24 09:57:49;;;;;;;2.70;1.40;;;;;;;6.20;79.54;97760.28;5053714;28;20109;-82
2022/01/24 10:00:19;;;;;;;4.07;1.60;;;;;;;5.56;79.17;97767.59;5071731;28;20063;-82
2022/01/24 10:02:46;;;;;;;3.50;1.63;;;;;;;4.68;85.34;97772.59;5051774;28;20504;-81
2022/01/24 10:05:20;;;;;;;6.90;1.70;;;;;;;5.66;84.44;97761.72;5042268;28;20398;-81
2022/01/24 10:07:50;;;;;;;3.58;1.42;;;;;;;6.30;76.96;97759.63;5060468;28;20041;-81
2022/01/24 10:10:41;;;;;;;6.50;1.60;;;;;;;6.10;76.31;97760.88;5045565;28;20037;-81
2022/01/24 10:16:26;;;;;;;3.87;1.50;;;;;;;7.11;73.24;97756.25;5071516;28;20033;-81
2022/01/24 10:19:19;;;;;;;3.53;1.70;;;;;;;6.78;74.42;97754.03;5047965;28;20064;-82
2022/01/24 10:21:53;;;;;;;3.85;1.60;;;;;;;7.11;71.85;97743.16;5059669;28;20033;-82
2022/01/24 10:24:37;;;;;;;4.10;2.00;;;;;;;6.84;71.99;97746.63;5059009;28;20040;-81
2022/01/24 10:27:13;;;;;;;2.43;1.20;;;;;;;6.42;75.71;97741.50;5064904;28;20119;-81
2022/01/24 10:29:44;;;;;;;4.07;1.23;;;;;;;5.95;74.39;97745.28;5041544;28;20044;-81
2022/01/24 10:32:33;;;;;;;5.07;1.43;;;;;;;5.95;74.53;97742.69;5069671;28;20058;-81
2022/01/24 10:35:20;;;;;;;4.57;1.60;;;;;;;5.01;80.42;97752.53;5053608;28;20070;-81
2022/01/24 10:37:50;;;;;;;4.87;1.53;;;;;;;5.22;80.08;97743.47;5050394;28;20036;-82
2022/01/24 10:40:44;;;;;;;3.67;1.50;;;;;;;4.89;82.52;97746.25;5071341;28;20126;-82
2022/01/24 10:43:22;;;;;;;5.27;1.83;;;;;;;6.35;78.36;97734.06;5073481;28;20361;-82
2022/01/24 10:45:49;;;;;;;3.63;1.40;;;;;;;6.60;73.99;97730.72;5047034;28;20267;-82
2022/01/24 10:48:34;;;;;;;2.97;1.13;;;;;;;6.66;74.25;97739.94;5041088;28;20036;-82
2022/01/24 10:51:20;;;;;;;3.43;1.53;;;;;;;6.35;74.14;97725.38;5040223;28;20037;-82
2022/01/24 10:53:52;;;;;;;4.53;1.67;;;;;;;6.73;73.78;97719.50;5074670;28;20052;-82
2022/01/24 10:56:23;;;;;;;5.00;1.30;;;;;;;6.47;73.25;97719.41;5038100;28;20048;-82
2022/01/24 10:58:49;;;;;;;2.70;1.40;;;;;;;7.28;69.86;97719.34;5056845;28;20039;-82
2022/01/24 11:01:15;;;;;;;4.93;1.50;;;;;;;7.15;70.37;97715.84;5072924;28;20020;-83
2022/01/24 11:03:40;;;;;;;4.40;1.73;;;;;;;6.87;70.99;97723.81;5055786;28;20079;-82
2022/01/24 11:06:06;;;;;;;4.90;1.30;;;;;;;6.08;74.95;97722.72;5056736;28;20413;-83
2022/01/24 11:08:32;;;;;;;4.80;1.47;;;;;;;6.63;75.52;97724.47;5055106;28;20379;-81
2022/01/24 11:10:57;;;;;;;3.17;1.43;;;;;;;6.50;73.06;97721.78;5058089;28;20350;-82
2022/01/24 11:13:30;;;;;;;4.37;1.80;;;;;;;6.30;72.59;97717.81;5039961;28;20020;-82
2022/01/24 11:15:58;;;;;;;6.03;1.33;;;;;;;6.50;72.48;97713.13;5057008;28;20060;-83
2022/01/24 11:18:25;;;;;;;2.90;1.40;;;;;;;6.56;73.45;97712.72;5052116;28;20054;-82
2022/01/24 11:21:01;;;;;;;3.93;1.60;;;;;;;6.37;72.19;97702.59;5070094;28;20119;-82
2022/01/24 11:23:31;;;;;;;3.83;1.57;;;;;;;6.09;74.74;97698.28;5064284;28;20037;-82
2022/01/24 11:25:57;;;;;;;2.23;1.10;;;;;;;6.48;75.08;97699.31;5046566;28;20445;-82
2022/01/24 11:28:25;;;;;;;5.60;1.63;;;;;;;6.63;71.84;97697.50;5061382;28;20028;-82
2022/01/24 11:31:00;;;;;;;3.57;1.23;;;;;;;7.09;71.31;97692.72;5061669;28;20032;-80
2022/01/24 11:33:40;;;;;;;3.83;1.40;;;;;;;7.31;69.11;97690.34;5057340;28;20032;-80
2022/01/24 11:36:07;;;;;;;5.90;1.97;;;;;;;7.08;68.91;97689.25;5045337;28;20123;-82
2022/01/24 11:38:42;;;;;;;4.20;1.97;;;;;;;6.92;71.50;97691.22;5041943;28;20491;-82
2022/01/24 11:41:43;;;;;;;4.53;2.37;;;;;;;6.44;73.52;97689.97;5053064;28;20024;-82
2022/01/24 11:44:12;;;;;;;4.70;1.67;;;;;;;5.93;72.88;97702.75;5048450;28;20067;-81
2022/01/24 11:46:48;;;;;;;5.57;1.90;;;;;;;5.63;76.10;97695.81;5071400;28;20452;-80
2022/01/24 11:49:32;;;;;;;3.30;1.57;;;;;;;6.11;74.87;97685.97;5058275;28;20105;-82
2022/01/24 11:52:15;;;;;;;4.03;1.80;;;;;;;6.72;72.78;97687.28;5043632;28;20061;-81
2022/01/24 11:55:01;;;;;;;6.80;1.67;;;;;;;6.83;72.37;97694.41;5052505;28;20029;-83
2022/01/24 11:57:37;;;;;;;4.23;1.67;;;;;;;5.85;74.94;97685.75;5062710;28;20052;-81
2022/01/24 12:00:07;;;;;;;5.57;1.80;;;;;;;6.48;72.67;97674.03;5048753;28;20027;-83
2022/01/24 12:02:40;;;;;;;5.87;1.60;;;;;;;6.49;71.89;97677.47;5043349;28;20044;-82
2022/01/24 12:05:23;;;;;;;4.13;2.22;;;;;;;7.02;70.18;97673.13;5042785;28;20028;-83
2022/01/24 12:07:51;;;;;;;4.63;1.30;;;;;;;7.06;69.37;97669.38;5042481;28;20389;-82
2022/01/24 12:10:32;;;;;;;5.43;2.00;;;;;;;6.93;70.56;97673.72;5054241;28;20497;-82
2022/01/24 12:13:03;;;;;;;8.67;2.70;;;;;;;6.64;70.34;97680.84;5056719;28;20447;-82
2022/01/24 12:15:38;;;;;;;5.27;1.50;;;;;;;6.16;72.41;97676.06;5040203;28;20165;-82
2022/01/24 12:18:09;;;;;;;5.43;1.67;;;;;;;7.23;69.42;97670.84;5044667;28;20032;-83
2022/01/24 12:20:42;;;;;;;6.17;1.67;;;;;;;7.28;68.30;97661.75;5057738;28;20123;-83
2022/01/24 12:23:17;;;;;;;4.93;1.73;;;;;;;6.33;71.63;97670.59;5062512;28;20028;-83
2022/01/24 12:26:02;;;;;;;4.40;1.80;;;;;;;6.28;72.63;97672.69;5048734;28;20032;-83
2022/01/24 12:28:30;;;;;;;2.67;1.40;;;;;;;6.33;72.53;97657.53;5050503;28;20036;-82
2022/01/24 12:31:08;;;;;;;4.07;1.67;;;;;;;6.38;71.46;97663.31;5054695;28;20032;-83
2022/01/24 12:33:38;;;;;;;4.57;1.70;;;;;;;6.28;72.85;97657.00;5050398;28;20085;-82
2022/01/24 12:36:15;;;;;;;4.80;2.47;;;;;;;6.63;72.66;97648.66;5053049;28;20114;-82
2022/01/24 12:38:51;;;;;;;3.10;1.53;;;;;;;6.56;71.20;97650.00;5086452;28;20028;-83
2022/01/24 12:41:35;;;;;;;6.40;1.90;;;;;;;6.30;72.45;97643.81;5057344;28;20032;-83
2022/01/24 12:46:32;;;;;;;5.00;1.93;;;;;;;6.44;72.84;97641.19;5096610;28;19916;-83
2022/01/24 12:49:01;;;;;;;5.03;1.60;;;;;;;6.56;71.69;97639.53;5041685;28;20037;-83
2022/01/24 12:51:31;;;;;;;6.67;1.97;;;;;;;6.17;72.90;97643.78;5080074;28;20041;-83
2022/01/24 12:53:57;;;;;;;5.07;2.13;;;;;;;6.73;71.39;97634.03;5051219;28;20405;-81
2022/01/24 12:56:29;;;;;;;4.33;1.67;;;;;;;7.37;70.09;97623.66;5055905;28;20377;-83
2022/01/24 12:58:56;;;;;;;2.53;1.50;;;;;;;7.01;70.00;97632.25;5054327;28;20115;-83
2022/01/24 13:01:25;;;;;;;3.07;1.50;;;;;;;6.26;71.90;97635.34;5060412;28;20028;-83
2022/01/24 13:03:58;;;;;;;3.47;1.50;;;;;;;6.76;71.95;97626.00;5050857;28;20028;-83
2022/01/24 13:06:35;;;;;;;3.47;1.48;;;;;;;7.00;70.45;97623.53;5059583;28;20024;-82
2022/01/24 13:09:13;;;;;;;4.20;1.43;;;;;;;6.71;70.69;97632.50;5069142;28;20032;-82
2022/01/24 13:11:56;;;;;;;3.23;1.47;;;;;;;6.99;70.52;97621.03;5068672;28;20131;-83
2022/01/24 13:14:31;;;;;;;4.23;1.77;;;;;;;6.33;72.88;97625.34;5054919;28;20052;-82
2022/01/24 13:22:48;;;;;;;5.47;1.57;;;;;;;6.48;72.24;97620.91;5061804;28;20033;-83
2022/01/24 13:25:30;;;;;;;5.13;1.90;;;;;;;6.71;72.16;97617.63;5061249;28;20032;-82
2022/01/24 13:27:58;;;;;;;3.23;1.50;;;;;;;6.42;73.87;97618.69;5065406;28;20077;-83
2022/01/24 13:30:30;;;;;;;3.17;1.53;;;;;;;6.05;75.74;97624.50;5065279;28;20063;-81
2022/01/24 13:32:59;;;;;;;4.67;1.50;;;;;;;6.88;72.62;97610.47;5057165;28;20035;-81